sensor_id;sensor_type;location;lat;lon;timestamp;P1;durP1;ratioP1;P2;durP2;ratioP2
65831;SDS011;52593;42.648;23.332;2023-05-07T00:00:22;16.10;;;5.70;;
65831;SDS011;52593;42.648;23.332;2023-05-07T00:02:47;12.67;;;6.17;;
65831;SDS011;52593;42.648;23.332;2023-05-07T00:05:13;14.13;;;7.07;;
65831;SDS011;52593;42.648;23.332;2023-05-07T00:07:39;14.48;;;7.45;;
65831;SDS011;52593;42.648;23.332;2023-05-07T00:10:05;16.27;;;7.65;;
65831;SDS011;52593;42.648;23.332;2023-05-07T00:12:32;17.73;;;8.50;;
65831;SDS011;52593;42.648;23.332;2023-05-07T00:14:58;17.50;;;8.25;;
65831;SDS011;52593;42.648;23.332;2023-05-07T00:17:25;17.20;;;8.37;;
65831;SDS011;52593;42.648;23.332;2023-05-07T00:19:50;14.23;;;8.45;;
65831;SDS011;52593;42.648;23.332;2023-05-07T00:22:15;18.47;;;8.77;;
65831;SDS011;52593;42.648;23.332;2023-05-07T00:24:41;18.10;;;8.73;;
65831;SDS011;52593;42.648;23.332;2023-05-07T00:27:07;17.95;;;8.55;;
65831;SDS011;52593;42.648;23.332;2023-05-07T00:29:32;16.20;;;7.90;;
65831;SDS011;52593;42.648;23.332;2023-05-07T00:31:58;18.53;;;8.80;;
65831;SDS011;52593;42.648;23.332;2023-05-07T00:34:23;15.73;;;8.53;;
65831;SDS011;52593;42.648;23.332;2023-05-07T00:36:48;15.67;;;8.47;;
65831;SDS011;52593;42.648;23.332;2023-05-07T00:39:14;16.80;;;9.20;;
65831;SDS011;52593;42.648;23.332;2023-05-07T00:41:39;16.10;;;8.30;;
65831;SDS011;52593;42.648;23.332;2023-05-07T00:44:05;16.77;;;8.50;;
65831;SDS011;52593;42.648;23.332;2023-05-07T00:46:31;17.40;;;9.00;;
65831;SDS011;52593;42.648;23.332;2023-05-07T00:48:57;16.63;;;8.40;;
65831;SDS011;52593;42.648;23.332;2023-05-07T00:51:24;16.33;;;8.45;;
65831;SDS011;52593;42.648;23.332;2023-05-07T00:53:51;16.17;;;8.80;;
65831;SDS011;52593;42.648;23.332;2023-05-07T00:56:17;19.00;;;9.10;;
65831;SDS011;52593;42.648;23.332;2023-05-07T00:58:43;16.90;;;8.93;;
65831;SDS011;52593;42.648;23.332;2023-05-07T01:01:08;18.30;;;9.80;;
65831;SDS011;52593;42.648;23.332;2023-05-07T01:03:34;16.65;;;9.25;;
65831;SDS011;52593;42.648;23.332;2023-05-07T01:05:59;16.53;;;8.53;;
65831;SDS011;52593;42.648;23.332;2023-05-07T01:08:27;19.15;;;8.98;;
65831;SDS011;52593;42.648;23.332;2023-05-07T01:10:54;16.67;;;8.83;;
65831;SDS011;52593;42.648;23.332;2023-05-07T01:13:21;17.55;;;8.90;;
65831;SDS011;52593;42.648;23.332;2023-05-07T01:15:47;18.65;;;9.40;;
65831;SDS011;52593;42.648;23.332;2023-05-07T01:18:12;18.93;;;8.57;;
65831;SDS011;52593;42.648;23.332;2023-05-07T01:20:38;17.38;;;9.35;;
65831;SDS011;52593;42.648;23.332;2023-05-07T01:23:04;17.27;;;8.70;;
65831;SDS011;52593;42.648;23.332;2023-05-07T01:25:31;18.15;;;8.68;;
65831;SDS011;52593;42.648;23.332;2023-05-07T01:27:57;17.87;;;8.63;;
65831;SDS011;52593;42.648;23.332;2023-05-07T01:30:24;13.68;;;7.00;;
65831;SDS011;52593;42.648;23.332;2023-05-07T01:33:08;11.67;;;5.70;;
65831;SDS011;52593;42.648;23.332;2023-05-07T01:35:40;10.63;;;5.32;;
65831;SDS011;52593;42.648;23.332;2023-05-07T01:38:08;11.55;;;5.18;;
65831;SDS011;52593;42.648;23.332;2023-05-07T01:40:34;9.70;;;4.50;;
65831;SDS011;52593;42.648;23.332;2023-05-07T01:43:00;9.48;;;4.75;;
65831;SDS011;52593;42.648;23.332;2023-05-07T01:45:30;13.00;;;4.80;;
65831;SDS011;52593;42.648;23.332;2023-05-07T01:47:57;8.67;;;4.43;;
65831;SDS011;52593;42.648;23.332;2023-05-07T01:50:24;10.40;;;4.85;;
65831;SDS011;52593;42.648;23.332;2023-05-07T01:52:50;9.38;;;4.60;;
65831;SDS011;52593;42.648;23.332;2023-05-07T01:55:16;12.65;;;5.80;;
65831;SDS011;52593;42.648;23.332;2023-05-07T01:57:41;10.80;;;5.70;;
65831;SDS011;52593;42.648;23.332;2023-05-07T02:00:07;12.57;;;6.50;;
65831;SDS011;52593;42.648;23.332;2023-05-07T02:02:34;11.70;;;6.10;;
65831;SDS011;52593;42.648;23.332;2023-05-07T02:04:59;11.20;;;6.20;;
65831;SDS011;52593;42.648;23.332;2023-05-07T02:07:26;11.70;;;6.07;;
65831;SDS011;52593;42.648;23.332;2023-05-07T02:09:51;12.90;;;6.23;;
65831;SDS011;52593;42.648;23.332;2023-05-07T02:12:17;14.50;;;6.60;;
65831;SDS011;52593;42.648;23.332;2023-05-07T02:14:42;14.03;;;6.23;;
65831;SDS011;52593;42.648;23.332;2023-05-07T02:17:07;10.87;;;6.47;;
65831;SDS011;52593;42.648;23.332;2023-05-07T02:19:33;13.43;;;6.80;;
65831;SDS011;52593;42.648;23.332;2023-05-07T02:21:58;11.23;;;6.43;;
65831;SDS011;52593;42.648;23.332;2023-05-07T02:24:24;12.87;;;6.37;;
65831;SDS011;52593;42.648;23.332;2023-05-07T02:26:49;15.60;;;6.37;;
65831;SDS011;52593;42.648;23.332;2023-05-07T02:29:15;12.20;;;6.50;;
65831;SDS011;52593;42.648;23.332;2023-05-07T02:31:40;13.40;;;6.50;;
65831;SDS011;52593;42.648;23.332;2023-05-07T02:34:06;14.07;;;6.73;;
65831;SDS011;52593;42.648;23.332;2023-05-07T02:36:31;12.37;;;6.63;;
65831;SDS011;52593;42.648;23.332;2023-05-07T02:38:56;12.37;;;6.80;;
65831;SDS011;52593;42.648;23.332;2023-05-07T02:41:22;12.37;;;6.80;;
65831;SDS011;52593;42.648;23.332;2023-05-07T02:43:47;13.32;;;6.88;;
65831;SDS011;52593;42.648;23.332;2023-05-07T02:46:12;13.13;;;6.97;;
65831;SDS011;52593;42.648;23.332;2023-05-07T02:48:38;13.90;;;6.60;;
65831;SDS011;52593;42.648;23.332;2023-05-07T02:51:03;12.93;;;6.27;;
65831;SDS011;52593;42.648;23.332;2023-05-07T02:53:30;12.23;;;6.72;;
65831;SDS011;52593;42.648;23.332;2023-05-07T02:55:56;14.88;;;6.75;;
65831;SDS011;52593;42.648;23.332;2023-05-07T02:58:23;13.60;;;7.10;;
65831;SDS011;52593;42.648;23.332;2023-05-07T03:00:48;12.35;;;6.63;;
65831;SDS011;52593;42.648;23.332;2023-05-07T03:03:14;13.20;;;6.67;;
65831;SDS011;52593;42.648;23.332;2023-05-07T03:05:40;15.60;;;7.18;;
65831;SDS011;52593;42.648;23.332;2023-05-07T03:08:06;12.80;;;6.87;;
65831;SDS011;52593;42.648;23.332;2023-05-07T03:10:31;13.93;;;7.40;;
65831;SDS011;52593;42.648;23.332;2023-05-07T03:12:57;14.07;;;6.90;;
65831;SDS011;52593;42.648;23.332;2023-05-07T03:15:22;13.73;;;7.17;;
65831;SDS011;52593;42.648;23.332;2023-05-07T03:17:48;15.20;;;7.23;;
65831;SDS011;52593;42.648;23.332;2023-05-07T03:20:13;15.17;;;7.40;;
65831;SDS011;52593;42.648;23.332;2023-05-07T03:22:39;14.05;;;7.07;;
65831;SDS011;52593;42.648;23.332;2023-05-07T03:25:05;13.05;;;6.95;;
65831;SDS011;52593;42.648;23.332;2023-05-07T03:27:31;14.77;;;7.33;;
65831;SDS011;52593;42.648;23.332;2023-05-07T03:29:57;18.52;;;7.78;;
65831;SDS011;52593;42.648;23.332;2023-05-07T03:32:22;17.50;;;8.07;;
65831;SDS011;52593;42.648;23.332;2023-05-07T03:34:47;16.33;;;7.50;;
65831;SDS011;52593;42.648;23.332;2023-05-07T03:37:13;16.30;;;7.65;;
65831;SDS011;52593;42.648;23.332;2023-05-07T03:39:38;14.47;;;7.70;;
65831;SDS011;52593;42.648;23.332;2023-05-07T03:42:04;15.07;;;7.27;;
65831;SDS011;52593;42.648;23.332;2023-05-07T03:44:29;18.57;;;7.43;;
65831;SDS011;52593;42.648;23.332;2023-05-07T03:46:55;13.73;;;7.10;;
65831;SDS011;52593;42.648;23.332;2023-05-07T03:49:20;15.83;;;7.40;;
65831;SDS011;52593;42.648;23.332;2023-05-07T03:51:46;13.30;;;7.60;;
65831;SDS011;52593;42.648;23.332;2023-05-07T03:54:11;15.65;;;7.18;;
65831;SDS011;52593;42.648;23.332;2023-05-07T03:56:37;15.80;;;7.60;;
65831;SDS011;52593;42.648;23.332;2023-05-07T03:59:02;14.20;;;7.23;;
65831;SDS011;52593;42.648;23.332;2023-05-07T04:01:28;13.75;;;6.88;;
65831;SDS011;52593;42.648;23.332;2023-05-07T04:03:53;13.87;;;6.90;;
65831;SDS011;52593;42.648;23.332;2023-05-07T04:06:18;15.37;;;7.40;;
65831;SDS011;52593;42.648;23.332;2023-05-07T04:08:44;15.17;;;7.57;;
65831;SDS011;52593;42.648;23.332;2023-05-07T04:11:09;13.23;;;6.60;;
65831;SDS011;52593;42.648;23.332;2023-05-07T04:13:35;14.57;;;7.57;;
65831;SDS011;52593;42.648;23.332;2023-05-07T04:16:03;15.70;;;7.63;;
65831;SDS011;52593;42.648;23.332;2023-05-07T04:18:30;14.35;;;7.70;;
65831;SDS011;52593;42.648;23.332;2023-05-07T04:20:55;14.70;;;7.47;;
65831;SDS011;52593;42.648;23.332;2023-05-07T04:23:20;13.67;;;7.40;;
65831;SDS011;52593;42.648;23.332;2023-05-07T04:25:46;14.30;;;7.37;;
65831;SDS011;52593;42.648;23.332;2023-05-07T04:28:11;15.17;;;8.17;;
65831;SDS011;52593;42.648;23.332;2023-05-07T04:30:37;15.17;;;7.13;;
65831;SDS011;52593;42.648;23.332;2023-05-07T04:33:03;15.07;;;7.50;;
65831;SDS011;52593;42.648;23.332;2023-05-07T04:35:28;14.87;;;7.10;;
65831;SDS011;52593;42.648;23.332;2023-05-07T04:37:54;16.10;;;7.80;;
65831;SDS011;52593;42.648;23.332;2023-05-07T04:40:19;15.43;;;8.37;;
65831;SDS011;52593;42.648;23.332;2023-05-07T04:42:44;15.02;;;8.13;;
65831;SDS011;52593;42.648;23.332;2023-05-07T04:45:10;15.93;;;8.17;;
65831;SDS011;52593;42.648;23.332;2023-05-07T04:47:37;15.40;;;8.07;;
65831;SDS011;52593;42.648;23.332;2023-05-07T04:50:03;16.77;;;8.33;;
65831;SDS011;52593;42.648;23.332;2023-05-07T04:52:28;18.67;;;8.27;;
65831;SDS011;52593;42.648;23.332;2023-05-07T04:54:54;16.03;;;8.27;;
65831;SDS011;52593;42.648;23.332;2023-05-07T04:57:19;15.23;;;8.23;;
65831;SDS011;52593;42.648;23.332;2023-05-07T04:59:44;15.07;;;8.23;;
65831;SDS011;52593;42.648;23.332;2023-05-07T05:02:10;16.43;;;7.97;;
65831;SDS011;52593;42.648;23.332;2023-05-07T05:04:36;15.03;;;8.77;;
65831;SDS011;52593;42.648;23.332;2023-05-07T05:07:02;15.18;;;7.32;;
65831;SDS011;52593;42.648;23.332;2023-05-07T05:09:29;15.73;;;8.13;;
65831;SDS011;52593;42.648;23.332;2023-05-07T05:11:54;17.97;;;8.47;;
65831;SDS011;52593;42.648;23.332;2023-05-07T05:14:20;16.52;;;8.50;;
65831;SDS011;52593;42.648;23.332;2023-05-07T05:16:45;15.17;;;7.90;;
65831;SDS011;52593;42.648;23.332;2023-05-07T05:19:10;14.43;;;7.57;;
65831;SDS011;52593;42.648;23.332;2023-05-07T05:21:36;17.30;;;8.20;;
65831;SDS011;52593;42.648;23.332;2023-05-07T05:24:01;13.77;;;6.77;;
65831;SDS011;52593;42.648;23.332;2023-05-07T05:26:27;14.20;;;7.80;;
65831;SDS011;52593;42.648;23.332;2023-05-07T05:28:52;15.52;;;7.80;;
65831;SDS011;52593;42.648;23.332;2023-05-07T05:31:17;16.80;;;7.07;;
65831;SDS011;52593;42.648;23.332;2023-05-07T05:33:43;14.27;;;8.03;;
65831;SDS011;52593;42.648;23.332;2023-05-07T05:36:11;16.87;;;7.70;;
65831;SDS011;52593;42.648;23.332;2023-05-07T05:38:38;13.48;;;7.57;;
65831;SDS011;52593;42.648;23.332;2023-05-07T05:41:03;14.65;;;7.95;;
65831;SDS011;52593;42.648;23.332;2023-05-07T05:43:29;14.10;;;7.57;;
65831;SDS011;52593;42.648;23.332;2023-05-07T05:45:55;13.43;;;7.37;;
65831;SDS011;52593;42.648;23.332;2023-05-07T05:48:21;12.65;;;7.25;;
65831;SDS011;52593;42.648;23.332;2023-05-07T05:50:46;16.07;;;7.50;;
65831;SDS011;52593;42.648;23.332;2023-05-07T05:53:11;14.40;;;7.53;;
65831;SDS011;52593;42.648;23.332;2023-05-07T05:55:37;12.57;;;7.00;;
65831;SDS011;52593;42.648;23.332;2023-05-07T05:58:02;13.07;;;7.07;;
65831;SDS011;52593;42.648;23.332;2023-05-07T06:00:28;12.43;;;6.97;;
65831;SDS011;52593;42.648;23.332;2023-05-07T06:02:54;13.50;;;7.00;;
65831;SDS011;52593;42.648;23.332;2023-05-07T06:05:19;11.90;;;6.50;;
65831;SDS011;52593;42.648;23.332;2023-05-07T06:07:45;12.95;;;6.90;;
65831;SDS011;52593;42.648;23.332;2023-05-07T06:10:10;12.87;;;6.13;;
65831;SDS011;52593;42.648;23.332;2023-05-07T06:12:36;10.17;;;5.83;;
65831;SDS011;52593;42.648;23.332;2023-05-07T06:15:01;11.47;;;5.70;;
65831;SDS011;52593;42.648;23.332;2023-05-07T06:17:26;10.57;;;5.93;;
65831;SDS011;52593;42.648;23.332;2023-05-07T06:19:52;10.98;;;5.97;;
65831;SDS011;52593;42.648;23.332;2023-05-07T06:22:17;12.03;;;6.00;;
65831;SDS011;52593;42.648;23.332;2023-05-07T06:24:43;14.00;;;6.25;;
65831;SDS011;52593;42.648;23.332;2023-05-07T06:27:08;12.77;;;5.90;;
65831;SDS011;52593;42.648;23.332;2023-05-07T06:29:34;12.53;;;5.90;;
65831;SDS011;52593;42.648;23.332;2023-05-07T06:32:09;12.55;;;6.10;;
65831;SDS011;52593;42.648;23.332;2023-05-07T06:34:35;13.73;;;6.00;;
65831;SDS011;52593;42.648;23.332;2023-05-07T06:37:01;11.77;;;6.40;;
65831;SDS011;52593;42.648;23.332;2023-05-07T06:39:26;10.87;;;5.63;;
65831;SDS011;52593;42.648;23.332;2023-05-07T06:41:52;12.57;;;5.80;;
65831;SDS011;52593;42.648;23.332;2023-05-07T06:44:18;12.80;;;6.40;;
65831;SDS011;52593;42.648;23.332;2023-05-07T06:46:43;13.37;;;6.20;;
65831;SDS011;52593;42.648;23.332;2023-05-07T06:49:08;12.53;;;6.13;;
65831;SDS011;52593;42.648;23.332;2023-05-07T06:51:34;13.23;;;6.17;;
65831;SDS011;52593;42.648;23.332;2023-05-07T06:53:59;11.35;;;6.10;;
65831;SDS011;52593;42.648;23.332;2023-05-07T06:56:25;12.70;;;6.10;;
65831;SDS011;52593;42.648;23.332;2023-05-07T06:58:50;13.30;;;6.20;;
65831;SDS011;52593;42.648;23.332;2023-05-07T07:01:16;10.63;;;6.00;;
65831;SDS011;52593;42.648;23.332;2023-05-07T07:03:41;11.17;;;5.40;;
65831;SDS011;52593;42.648;23.332;2023-05-07T07:06:06;9.17;;;5.30;;
65831;SDS011;52593;42.648;23.332;2023-05-07T07:08:32;9.93;;;4.77;;
65831;SDS011;52593;42.648;23.332;2023-05-07T07:10:58;9.93;;;5.18;;
65831;SDS011;52593;42.648;23.332;2023-05-07T07:13:23;8.97;;;4.70;;
65831;SDS011;52593;42.648;23.332;2023-05-07T07:15:48;9.93;;;5.70;;
65831;SDS011;52593;42.648;23.332;2023-05-07T07:18:14;13.50;;;5.53;;
65831;SDS011;52593;42.648;23.332;2023-05-07T07:20:40;11.32;;;5.70;;
65831;SDS011;52593;42.648;23.332;2023-05-07T07:23:05;10.67;;;5.70;;
65831;SDS011;52593;42.648;23.332;2023-05-07T07:25:31;14.68;;;6.20;;
65831;SDS011;52593;42.648;23.332;2023-05-07T07:27:56;10.63;;;5.60;;
65831;SDS011;52593;42.648;23.332;2023-05-07T07:30:22;13.88;;;5.90;;
65831;SDS011;52593;42.648;23.332;2023-05-07T07:32:47;13.77;;;6.20;;
65831;SDS011;52593;42.648;23.332;2023-05-07T07:35:13;12.40;;;5.97;;
65831;SDS011;52593;42.648;23.332;2023-05-07T07:37:38;12.03;;;6.00;;
65831;SDS011;52593;42.648;23.332;2023-05-07T07:40:04;12.70;;;6.20;;
65831;SDS011;52593;42.648;23.332;2023-05-07T07:42:30;10.88;;;6.15;;
65831;SDS011;52593;42.648;23.332;2023-05-07T07:44:55;13.37;;;6.30;;
65831;SDS011;52593;42.648;23.332;2023-05-07T07:47:22;16.45;;;6.18;;
65831;SDS011;52593;42.648;23.332;2023-05-07T07:49:47;11.97;;;5.90;;
65831;SDS011;52593;42.648;23.332;2023-05-07T07:52:12;14.70;;;7.37;;
65831;SDS011;52593;42.648;23.332;2023-05-07T07:54:38;12.38;;;6.82;;
65831;SDS011;52593;42.648;23.332;2023-05-07T07:57:03;14.37;;;7.60;;
65831;SDS011;52593;42.648;23.332;2023-05-07T07:59:29;15.23;;;7.23;;
65831;SDS011;52593;42.648;23.332;2023-05-07T08:01:54;17.87;;;8.57;;
65831;SDS011;52593;42.648;23.332;2023-05-07T08:04:21;17.10;;;8.18;;
65831;SDS011;52593;42.648;23.332;2023-05-07T08:06:47;15.05;;;8.32;;
65831;SDS011;52593;42.648;23.332;2023-05-07T08:09:12;15.03;;;7.77;;
65831;SDS011;52593;42.648;23.332;2023-05-07T08:11:38;16.47;;;8.10;;
65831;SDS011;52593;42.648;23.332;2023-05-07T08:14:03;15.43;;;7.80;;
65831;SDS011;52593;42.648;23.332;2023-05-07T08:16:29;12.00;;;6.50;;
65831;SDS011;52593;42.648;23.332;2023-05-07T08:18:55;15.35;;;7.18;;
65831;SDS011;52593;42.648;23.332;2023-05-07T08:21:20;14.73;;;7.73;;
65831;SDS011;52593;42.648;23.332;2023-05-07T08:23:45;15.03;;;8.03;;
65831;SDS011;52593;42.648;23.332;2023-05-07T08:26:11;15.60;;;8.13;;
65831;SDS011;52593;42.648;23.332;2023-05-07T08:28:36;13.17;;;7.20;;
65831;SDS011;52593;42.648;23.332;2023-05-07T08:31:02;14.95;;;7.20;;
65831;SDS011;52593;42.648;23.332;2023-05-07T08:33:27;13.77;;;7.70;;
65831;SDS011;52593;42.648;23.332;2023-05-07T08:35:53;13.00;;;7.20;;
65831;SDS011;52593;42.648;23.332;2023-05-07T08:38:18;13.77;;;7.60;;
65831;SDS011;52593;42.648;23.332;2023-05-07T08:40:43;12.07;;;6.80;;
65831;SDS011;52593;42.648;23.332;2023-05-07T08:43:11;11.98;;;5.80;;
65831;SDS011;52593;42.648;23.332;2023-05-07T08:45:38;11.35;;;6.30;;
65831;SDS011;52593;42.648;23.332;2023-05-07T08:48:07;13.40;;;6.80;;
65831;SDS011;52593;42.648;23.332;2023-05-07T08:50:35;10.83;;;6.43;;
65831;SDS011;52593;42.648;23.332;2023-05-07T08:53:04;13.20;;;6.95;;
65831;SDS011;52593;42.648;23.332;2023-05-07T08:55:30;14.32;;;6.78;;
65831;SDS011;52593;42.648;23.332;2023-05-07T08:57:57;10.13;;;5.15;;
65831;SDS011;52593;42.648;23.332;2023-05-07T09:00:22;12.87;;;6.47;;
65831;SDS011;52593;42.648;23.332;2023-05-07T09:02:48;11.48;;;6.10;;
65831;SDS011;52593;42.648;23.332;2023-05-07T09:05:13;11.23;;;5.70;;
65831;SDS011;52593;42.648;23.332;2023-05-07T09:07:39;9.67;;;5.23;;
65831;SDS011;52593;42.648;23.332;2023-05-07T09:10:05;10.30;;;5.60;;
65831;SDS011;52593;42.648;23.332;2023-05-07T09:12:31;11.55;;;6.00;;
65831;SDS011;52593;42.648;23.332;2023-05-07T09:14:57;10.10;;;5.97;;
65831;SDS011;52593;42.648;23.332;2023-05-07T09:17:24;10.38;;;5.70;;
65831;SDS011;52593;42.648;23.332;2023-05-07T09:19:50;11.68;;;6.10;;
65831;SDS011;52593;42.648;23.332;2023-05-07T09:22:15;11.20;;;5.77;;
65831;SDS011;52593;42.648;23.332;2023-05-07T09:24:41;12.55;;;6.20;;
65831;SDS011;52593;42.648;23.332;2023-05-07T09:27:12;11.30;;;6.20;;
65831;SDS011;52593;42.648;23.332;2023-05-07T09:29:38;10.55;;;5.80;;
65831;SDS011;52593;42.648;23.332;2023-05-07T09:32:07;9.80;;;5.73;;
65831;SDS011;52593;42.648;23.332;2023-05-07T09:34:33;9.43;;;5.25;;
65831;SDS011;52593;42.648;23.332;2023-05-07T09:37:02;11.63;;;5.85;;
65831;SDS011;52593;42.648;23.332;2023-05-07T09:39:41;10.80;;;5.83;;
65831;SDS011;52593;42.648;23.332;2023-05-07T09:42:08;12.82;;;5.57;;
65831;SDS011;52593;42.648;23.332;2023-05-07T09:44:34;11.98;;;6.47;;
65831;SDS011;52593;42.648;23.332;2023-05-07T09:47:01;9.27;;;5.85;;
65831;SDS011;52593;42.648;23.332;2023-05-07T09:49:30;12.93;;;5.70;;
65831;SDS011;52593;42.648;23.332;2023-05-07T09:52:00;10.53;;;5.47;;
65831;SDS011;52593;42.648;23.332;2023-05-07T09:54:26;11.98;;;5.57;;
65831;SDS011;52593;42.648;23.332;2023-05-07T09:56:55;10.15;;;5.72;;
65831;SDS011;52593;42.648;23.332;2023-05-07T09:59:22;12.05;;;6.20;;
65831;SDS011;52593;42.648;23.332;2023-05-07T10:01:47;10.53;;;5.70;;
65831;SDS011;52593;42.648;23.332;2023-05-07T10:04:14;14.18;;;5.70;;
65831;SDS011;52593;42.648;23.332;2023-05-07T10:06:41;10.45;;;5.78;;
65831;SDS011;52593;42.648;23.332;2023-05-07T10:09:08;12.48;;;5.82;;
65831;SDS011;52593;42.648;23.332;2023-05-07T10:11:35;11.07;;;5.65;;
65831;SDS011;52593;42.648;23.332;2023-05-07T10:14:04;8.13;;;3.93;;
65831;SDS011;52593;42.648;23.332;2023-05-07T10:16:33;8.65;;;4.00;;
65831;SDS011;52593;42.648;23.332;2023-05-07T10:19:04;7.38;;;4.25;;
65831;SDS011;52593;42.648;23.332;2023-05-07T10:21:30;7.57;;;3.90;;
65831;SDS011;52593;42.648;23.332;2023-05-07T10:24:04;7.55;;;4.18;;
65831;SDS011;52593;42.648;23.332;2023-05-07T10:26:33;8.80;;;3.80;;
65831;SDS011;52593;42.648;23.332;2023-05-07T10:29:04;7.68;;;3.63;;
65831;SDS011;52593;42.648;23.332;2023-05-07T10:34:59;7.90;;;4.30;;
65831;SDS011;52593;42.648;23.332;2023-05-07T10:37:28;9.43;;;4.10;;
65831;SDS011;52593;42.648;23.332;2023-05-07T10:39:54;8.47;;;4.07;;
65831;SDS011;52593;42.648;23.332;2023-05-07T10:42:20;8.10;;;4.32;;
65831;SDS011;52593;42.648;23.332;2023-05-07T10:44:45;8.00;;;4.27;;
65831;SDS011;52593;42.648;23.332;2023-05-07T10:47:12;9.55;;;4.28;;
65831;SDS011;52593;42.648;23.332;2023-05-07T10:52:13;9.45;;;4.95;;
65831;SDS011;52593;42.648;23.332;2023-05-07T10:54:40;6.78;;;4.18;;
65831;SDS011;52593;42.648;23.332;2023-05-07T10:57:40;7.68;;;3.80;;
65831;SDS011;52593;42.648;23.332;2023-05-07T11:03:21;8.50;;;3.97;;
65831;SDS011;52593;42.648;23.332;2023-05-07T11:05:40;8.02;;;4.68;;
65831;SDS011;52593;42.648;23.332;2023-05-07T11:08:07;7.97;;;4.15;;
65831;SDS011;52593;42.648;23.332;2023-05-07T11:13:14;7.75;;;4.20;;
65831;SDS011;52593;42.648;23.332;2023-05-07T11:15:41;7.43;;;3.73;;
65831;SDS011;52593;42.648;23.332;2023-05-07T11:18:09;7.68;;;4.20;;
65831;SDS011;52593;42.648;23.332;2023-05-07T11:26:03;9.38;;;4.78;;
65831;SDS011;52593;42.648;23.332;2023-05-07T11:28:39;7.70;;;4.10;;
65831;SDS011;52593;42.648;23.332;2023-05-07T11:31:05;8.65;;;4.38;;
65831;SDS011;52593;42.648;23.332;2023-05-07T11:33:31;9.32;;;4.57;;
65831;SDS011;52593;42.648;23.332;2023-05-07T11:35:57;7.90;;;5.00;;
65831;SDS011;52593;42.648;23.332;2023-05-07T11:38:24;8.45;;;4.70;;
65831;SDS011;52593;42.648;23.332;2023-05-07T11:40:50;7.95;;;4.75;;
65831;SDS011;52593;42.648;23.332;2023-05-07T11:43:17;6.93;;;4.40;;
65831;SDS011;52593;42.648;23.332;2023-05-07T11:45:42;8.77;;;5.10;;
65831;SDS011;52593;42.648;23.332;2023-05-07T11:48:09;8.25;;;4.68;;
65831;SDS011;52593;42.648;23.332;2023-05-07T11:50:35;7.40;;;4.53;;
65831;SDS011;52593;42.648;23.332;2023-05-07T11:53:00;7.47;;;4.43;;
65831;SDS011;52593;42.648;23.332;2023-05-07T11:55:32;9.67;;;4.43;;
65831;SDS011;52593;42.648;23.332;2023-05-07T11:57:58;7.90;;;4.30;;
65831;SDS011;52593;42.648;23.332;2023-05-07T12:00:23;7.23;;;4.20;;
65831;SDS011;52593;42.648;23.332;2023-05-07T12:02:48;8.07;;;4.70;;
65831;SDS011;52593;42.648;23.332;2023-05-07T12:05:14;8.20;;;4.80;;
65831;SDS011;52593;42.648;23.332;2023-05-07T12:07:39;7.32;;;4.63;;
65831;SDS011;52593;42.648;23.332;2023-05-07T12:10:05;8.90;;;4.80;;
65831;SDS011;52593;42.648;23.332;2023-05-07T12:12:37;9.38;;;4.82;;
65831;SDS011;52593;42.648;23.332;2023-05-07T12:15:03;10.20;;;4.10;;
65831;SDS011;52593;42.648;23.332;2023-05-07T12:17:29;9.95;;;4.80;;
65831;SDS011;52593;42.648;23.332;2023-05-07T12:19:54;7.90;;;4.37;;
65831;SDS011;52593;42.648;23.332;2023-05-07T12:22:20;7.95;;;4.53;;
65831;SDS011;52593;42.648;23.332;2023-05-07T12:24:46;8.23;;;4.47;;
65831;SDS011;52593;42.648;23.332;2023-05-07T12:27:12;8.50;;;4.90;;
65831;SDS011;52593;42.648;23.332;2023-05-07T12:29:39;10.75;;;4.88;;
65831;SDS011;52593;42.648;23.332;2023-05-07T12:32:06;7.23;;;4.47;;
65831;SDS011;52593;42.648;23.332;2023-05-07T12:34:31;7.53;;;4.40;;
65831;SDS011;52593;42.648;23.332;2023-05-07T12:36:57;9.27;;;4.20;;
65831;SDS011;52593;42.648;23.332;2023-05-07T12:39:26;7.10;;;4.40;;
65831;SDS011;52593;42.648;23.332;2023-05-07T12:41:53;15.45;;;4.45;;
65831;SDS011;52593;42.648;23.332;2023-05-07T12:44:21;9.97;;;4.10;;
65831;SDS011;52593;42.648;23.332;2023-05-07T12:46:48;6.75;;;3.67;;
65831;SDS011;52593;42.648;23.332;2023-05-07T12:49:14;6.15;;;3.70;;
65831;SDS011;52593;42.648;23.332;2023-05-07T12:51:40;6.17;;;3.40;;
65831;SDS011;52593;42.648;23.332;2023-05-07T12:54:05;6.25;;;3.40;;
65831;SDS011;52593;42.648;23.332;2023-05-07T12:56:31;6.60;;;3.47;;
65831;SDS011;52593;42.648;23.332;2023-05-07T12:58:57;5.00;;;3.10;;
65831;SDS011;52593;42.648;23.332;2023-05-07T13:01:28;5.70;;;3.23;;
65831;SDS011;52593;42.648;23.332;2023-05-07T13:03:54;5.90;;;3.20;;
65831;SDS011;52593;42.648;23.332;2023-05-07T13:06:20;6.90;;;3.35;;
65831;SDS011;52593;42.648;23.332;2023-05-07T13:08:45;6.03;;;3.10;;
65831;SDS011;52593;42.648;23.332;2023-05-07T13:11:11;6.80;;;3.30;;
65831;SDS011;52593;42.648;23.332;2023-05-07T13:13:37;6.05;;;3.30;;
65831;SDS011;52593;42.648;23.332;2023-05-07T13:16:05;6.45;;;3.65;;
65831;SDS011;52593;42.648;23.332;2023-05-07T13:18:32;7.77;;;3.17;;
65831;SDS011;52593;42.648;23.332;2023-05-07T13:20:59;10.18;;;3.70;;
65831;SDS011;52593;42.648;23.332;2023-05-07T13:23:25;5.78;;;3.22;;
65831;SDS011;52593;42.648;23.332;2023-05-07T13:25:51;5.82;;;2.70;;
65831;SDS011;52593;42.648;23.332;2023-05-07T13:28:20;6.28;;;3.10;;
65831;SDS011;52593;42.648;23.332;2023-05-07T13:30:47;7.27;;;2.80;;
65831;SDS011;52593;42.648;23.332;2023-05-07T13:33:12;5.60;;;3.00;;
65831;SDS011;52593;42.648;23.332;2023-05-07T13:35:38;5.93;;;3.10;;
65831;SDS011;52593;42.648;23.332;2023-05-07T13:38:04;5.05;;;2.90;;
65831;SDS011;52593;42.648;23.332;2023-05-07T13:40:30;5.72;;;2.92;;
65831;SDS011;52593;42.648;23.332;2023-05-07T13:42:57;5.53;;;3.27;;
65831;SDS011;52593;42.648;23.332;2023-05-07T13:45:23;6.55;;;3.05;;
65831;SDS011;52593;42.648;23.332;2023-05-07T13:47:51;6.90;;;2.85;;
65831;SDS011;52593;42.648;23.332;2023-05-07T13:50:16;5.83;;;3.17;;
65831;SDS011;52593;42.648;23.332;2023-05-07T13:52:43;6.97;;;2.90;;
65831;SDS011;52593;42.648;23.332;2023-05-07T13:55:15;5.97;;;2.92;;
65831;SDS011;52593;42.648;23.332;2023-05-07T13:57:40;4.93;;;3.03;;
65831;SDS011;52593;42.648;23.332;2023-05-07T14:00:06;4.75;;;2.90;;
65831;SDS011;52593;42.648;23.332;2023-05-07T14:02:32;6.17;;;3.10;;
65831;SDS011;52593;42.648;23.332;2023-05-07T14:04:57;6.60;;;3.30;;
65831;SDS011;52593;42.648;23.332;2023-05-07T14:07:23;6.27;;;3.43;;
65831;SDS011;52593;42.648;23.332;2023-05-07T14:09:48;8.10;;;5.27;;
65831;SDS011;52593;42.648;23.332;2023-05-07T14:12:13;8.13;;;5.20;;
65831;SDS011;52593;42.648;23.332;2023-05-07T14:14:39;6.57;;;3.30;;
65831;SDS011;52593;42.648;23.332;2023-05-07T14:17:04;8.57;;;3.60;;
65831;SDS011;52593;42.648;23.332;2023-05-07T14:19:29;6.63;;;3.40;;
65831;SDS011;52593;42.648;23.332;2023-05-07T14:21:55;6.37;;;3.27;;
65831;SDS011;52593;42.648;23.332;2023-05-07T14:24:20;6.50;;;3.33;;
65831;SDS011;52593;42.648;23.332;2023-05-07T14:26:45;6.10;;;3.70;;
65831;SDS011;52593;42.648;23.332;2023-05-07T14:29:11;8.98;;;3.40;;
65831;SDS011;52593;42.648;23.332;2023-05-07T14:31:36;9.40;;;3.77;;
65831;SDS011;52593;42.648;23.332;2023-05-07T14:34:01;6.67;;;3.37;;
65831;SDS011;52593;42.648;23.332;2023-05-07T14:36:27;5.47;;;3.10;;